sensor_id;sensor_type;location;lat;lon;timestamp;pressure;altitude;pressure_sealevel;temperature;humidity
13765;BME280;6953;48.810;9.204;2023-05-28T00:01:49;98876.97;;;14.51;80.03
13765;BME280;6953;48.810;9.204;2023-05-28T00:04:14;98889.84;;;14.55;80.36
13765;BME280;6953;48.810;9.204;2023-05-28T00:06:41;98888.56;;;14.48;80.43
13765;BME280;6953;48.810;9.204;2023-05-28T00:09:07;98924.03;;;14.44;81.37
13765;BME280;6953;48.810;9.204;2023-05-28T00:11:32;98619.44;;;12.76;81.70
13765;BME280;6953;48.810;9.204;2023-05-28T00:13:58;98658.28;;;13.00;81.25
13765;BME280;6953;48.810;9.204;2023-05-28T00:16:24;98845.06;;;14.15;81.99
13765;BME280;6953;48.810;9.204;2023-05-28T00:18:50;98879.00;;;14.33;82.48
13765;BME280;6953;48.810;9.204;2023-05-28T00:21:15;98873.06;;;14.30;82.99
13765;BME280;6953;48.810;9.204;2023-05-28T00:23:41;98863.41;;;14.16;83.07
13765;BME280;6953;48.810;9.204;2023-05-28T00:26:06;98874.53;;;14.21;83.49
13765;BME280;6953;48.810;9.204;2023-05-28T00:28:32;98878.50;;;14.14;84.17
13765;BME280;6953;48.810;9.204;2023-05-28T00:30:57;98632.16;;;12.69;84.39
13765;BME280;6953;48.810;9.204;2023-05-28T00:33:23;98871.81;;;13.95;84.68
13765;BME280;6953;48.810;9.204;2023-05-28T00:35:48;98725.91;;;13.14;85.06
13765;BME280;6953;48.810;9.204;2023-05-28T00:38:20;98895.00;;;13.90;85.43
13765;BME280;6953;48.810;9.204;2023-05-28T00:40:45;98873.16;;;13.88;85.20
13765;BME280;6953;48.810;9.204;2023-05-28T00:43:10;98866.38;;;13.84;85.85
13765;BME280;6953;48.810;9.204;2023-05-28T00:45:36;98893.03;;;13.79;85.76
13765;BME280;6953;48.810;9.204;2023-05-28T00:48:01;98862.41;;;13.77;85.89
13765;BME280;6953;48.810;9.204;2023-05-28T00:50:26;98789.22;;;13.26;85.84
13765;BME280;6953;48.810;9.204;2023-05-28T00:52:53;98863.06;;;13.66;85.56
13765;BME280;6953;48.810;9.204;2023-05-28T00:55:19;98770.78;;;13.12;85.76
13765;BME280;6953;48.810;9.204;2023-05-28T00:57:46;98864.88;;;13.66;84.91
13765;BME280;6953;48.810;9.204;2023-05-28T01:00:12;98888.44;;;13.69;84.16
13765;BME280;6953;48.810;9.204;2023-05-28T01:02:39;98606.72;;;11.99;84.11
13765;BME280;6953;48.810;9.204;2023-05-28T01:05:04;98863.06;;;13.66;84.64
13765;BME280;6953;48.810;9.204;2023-05-28T01:07:30;98857.81;;;13.66;84.77
13765;BME280;6953;48.810;9.204;2023-05-28T01:09:56;98853.31;;;13.54;85.41
13765;BME280;6953;48.810;9.204;2023-05-28T01:12:21;98792.53;;;13.16;85.80
13765;BME280;6953;48.810;9.204;2023-05-28T01:14:48;98861.31;;;13.53;85.77
13765;BME280;6953;48.810;9.204;2023-05-28T01:17:14;98866.78;;;13.50;85.99
13765;BME280;6953;48.810;9.204;2023-05-28T01:19:40;98822.97;;;13.06;85.93
13765;BME280;6953;48.810;9.204;2023-05-28T01:22:07;98899.44;;;13.48;86.25
13765;BME280;6953;48.810;9.204;2023-05-28T01:24:35;98857.34;;;13.46;86.68
13765;BME280;6953;48.810;9.204;2023-05-28T01:27:02;98858.41;;;13.44;87.91
13765;BME280;6953;48.810;9.204;2023-05-28T01:29:28;98847.28;;;13.39;87.48
13765;BME280;6953;48.810;9.204;2023-05-28T01:31:53;98797.03;;;13.00;88.42
13765;BME280;6953;48.810;9.204;2023-05-28T01:34:19;98852.75;;;13.36;89.03
13765;BME280;6953;48.810;9.204;2023-05-28T01:36:48;98858.03;;;13.36;89.45
13765;BME280;6953;48.810;9.204;2023-05-28T01:39:17;98811.63;;;13.05;89.63
13765;BME280;6953;48.810;9.204;2023-05-28T01:41:45;98851.88;;;13.21;90.16
13765;BME280;6953;48.810;9.204;2023-05-28T01:44:12;98851.81;;;13.23;90.66
13765;BME280;6953;48.810;9.204;2023-05-28T01:46:40;98784.34;;;12.63;91.22
13765;BME280;6953;48.810;9.204;2023-05-28T01:49:08;98850.75;;;13.11;91.51
13765;BME280;6953;48.810;9.204;2023-05-28T01:51:34;98852.16;;;13.03;91.72
13765;BME280;6953;48.810;9.204;2023-05-28T01:54:00;98827.56;;;12.88;91.50
13765;BME280;6953;48.810;9.204;2023-05-28T01:56:25;98850.66;;;12.99;91.69
13765;BME280;6953;48.810;9.204;2023-05-28T01:58:51;98847.53;;;12.92;91.52
13765;BME280;6953;48.810;9.204;2023-05-28T02:01:18;98851.75;;;12.95;91.16
13765;BME280;6953;48.810;9.204;2023-05-28T02:03:46;98610.00;;;11.43;91.38
13765;BME280;6953;48.810;9.204;2023-05-28T02:06:11;98827.97;;;12.67;91.52
13765;BME280;6953;48.810;9.204;2023-05-28T02:08:37;98856.22;;;12.79;92.06
13765;BME280;6953;48.810;9.204;2023-05-28T02:11:03;98882.63;;;12.77;92.14
13765;BME280;6953;48.810;9.204;2023-05-28T02:13:28;98849.25;;;12.78;92.51
13765;BME280;6953;48.810;9.204;2023-05-28T02:15:54;98835.69;;;12.70;92.46
13765;BME280;6953;48.810;9.204;2023-05-28T02:18:20;98762.91;;;12.26;92.85
13765;BME280;6953;48.810;9.204;2023-05-28T02:20:46;98845.28;;;12.71;93.27
13765;BME280;6953;48.810;9.204;2023-05-28T02:23:11;98827.75;;;12.56;93.49
13765;BME280;6953;48.810;9.204;2023-05-28T02:25:36;98851.81;;;12.64;94.12
13765;BME280;6953;48.810;9.204;2023-05-28T02:28:03;98848.53;;;12.60;94.55
13765;BME280;6953;48.810;9.204;2023-05-28T02:30:28;98873.44;;;12.55;94.77
13765;BME280;6953;48.810;9.204;2023-05-28T02:32:54;98765.09;;;12.04;95.35
13765;BME280;6953;48.810;9.204;2023-05-28T02:35:20;98788.91;;;12.16;95.72
13765;BME280;6953;48.810;9.204;2023-05-28T02:37:46;98576.38;;;10.90;95.75
13765;BME280;6953;48.810;9.204;2023-05-28T02:40:12;98840.19;;;12.39;96.66
13765;BME280;6953;48.810;9.204;2023-05-28T02:42:38;98829.94;;;12.34;97.12
13765;BME280;6953;48.810;9.204;2023-05-28T02:45:04;98833.31;;;12.36;97.09
13765;BME280;6953;48.810;9.204;2023-05-28T02:47:30;98777.06;;;11.94;97.98
13765;BME280;6953;48.810;9.204;2023-05-28T02:49:55;98825.47;;;12.21;97.92
13765;BME280;6953;48.810;9.204;2023-05-28T02:52:21;98868.91;;;12.28;98.32
13765;BME280;6953;48.810;9.204;2023-05-28T02:54:46;98561.41;;;10.61;98.45
13765;BME280;6953;48.810;9.204;2023-05-28T02:57:11;98827.69;;;12.13;98.84
13765;BME280;6953;48.810;9.204;2023-05-28T02:59:37;98844.03;;;12.18;98.91
13765;BME280;6953;48.810;9.204;2023-05-28T03:02:02;98584.84;;;10.64;99.11
13765;BME280;6953;48.810;9.204;2023-05-28T03:04:28;98844.41;;;12.12;100.00
13765;BME280;6953;48.810;9.204;2023-05-28T03:06:53;98851.16;;;12.16;100.00
13765;BME280;6953;48.810;9.204;2023-05-28T03:09:18;98860.19;;;12.12;100.00
13765;BME280;6953;48.810;9.204;2023-05-28T03:11:44;98593.91;;;10.58;100.00
13765;BME280;6953;48.810;9.204;2023-05-28T03:14:09;98824.56;;;11.91;100.00
13765;BME280;6953;48.810;9.204;2023-05-28T03:16:35;98855.09;;;12.09;100.00
13765;BME280;6953;48.810;9.204;2023-05-28T03:19:02;98856.09;;;12.06;100.00
13765;BME280;6953;48.810;9.204;2023-05-28T03:21:27;98597.78;;;10.51;100.00
13765;BME280;6953;48.810;9.204;2023-05-28T03:23:53;98865.84;;;12.04;100.00
13765;BME280;6953;48.810;9.204;2023-05-28T03:26:18;98893.00;;;12.05;100.00
13765;BME280;6953;48.810;9.204;2023-05-28T03:28:43;98596.06;;;10.50;100.00
13765;BME280;6953;48.810;9.204;2023-05-28T03:31:11;98856.25;;;12.03;100.00
13765;BME280;6953;48.810;9.204;2023-05-28T03:33:36;98857.28;;;12.01;100.00
13765;BME280;6953;48.810;9.204;2023-05-28T03:36:02;98867.03;;;11.99;100.00
13765;BME280;6953;48.810;9.204;2023-05-28T03:38:27;98860.03;;;11.99;100.00
13765;BME280;6953;48.810;9.204;2023-05-28T03:40:52;98859.09;;;12.00;100.00
13765;BME280;6953;48.810;9.204;2023-05-28T03:43:18;98621.56;;;10.64;100.00
13765;BME280;6953;48.810;9.204;2023-05-28T03:45:43;98838.38;;;11.94;100.00
13765;BME280;6953;48.810;9.204;2023-05-28T03:48:08;98851.88;;;12.04;100.00
13765;BME280;6953;48.810;9.204;2023-05-28T03:50:34;98600.06;;;10.57;100.00
13765;BME280;6953;48.810;9.204;2023-05-28T03:53:00;98857.56;;;12.12;100.00
13765;BME280;6953;48.810;9.204;2023-05-28T03:55:25;98838.44;;;12.08;100.00
13765;BME280;6953;48.810;9.204;2023-05-28T03:57:51;98864.66;;;12.25;99.51
13765;BME280;6953;48.810;9.204;2023-05-28T04:00:16;98591.19;;;10.75;98.57
13765;BME280;6953;48.810;9.204;2023-05-28T04:02:41;98647.28;;;11.21;98.10
13765;BME280;6953;48.810;9.204;2023-05-28T04:05:07;98831.47;;;12.38;97.79
13765;BME280;6953;48.810;9.204;2023-05-28T04:07:32;98874.69;;;12.63;97.79
13765;BME280;6953;48.810;9.204;2023-05-28T04:09:58;98858.25;;;12.74;97.22
13765;BME280;6953;48.810;9.204;2023-05-28T04:12:23;98856.81;;;12.84;96.67
13765;BME280;6953;48.810;9.204;2023-05-28T04:14:48;98867.47;;;12.96;96.25
13765;BME280;6953;48.810;9.204;2023-05-28T04:17:14;98890.34;;;13.10;96.33
13765;BME280;6953;48.810;9.204;2023-05-28T04:19:40;98852.16;;;13.31;96.42
13765;BME280;6953;48.810;9.204;2023-05-28T04:22:06;98854.16;;;13.55;95.54
13765;BME280;6953;48.810;9.204;2023-05-28T04:24:31;98822.06;;;13.62;94.11
13765;BME280;6953;48.810;9.204;2023-05-28T04:26:57;98855.09;;;14.08;92.59
13765;BME280;6953;48.810;9.204;2023-05-28T04:29:22;98882.81;;;14.42;90.95
13765;BME280;6953;48.810;9.204;2023-05-28T04:31:54;98855.25;;;14.72;89.68
13765;BME280;6953;48.810;9.204;2023-05-28T04:34:19;98843.78;;;14.98;88.16
13765;BME280;6953;48.810;9.204;2023-05-28T04:36:46;98807.44;;;15.14;86.55
13765;BME280;6953;48.810;9.204;2023-05-28T04:39:14;98628.38;;;14.44;84.33
13765;BME280;6953;48.810;9.204;2023-05-28T04:41:40;98872.03;;;16.20;82.89
13765;BME280;6953;48.810;9.204;2023-05-28T04:44:05;98854.44;;;16.55;81.31
13765;BME280;6953;48.810;9.204;2023-05-28T04:46:30;98797.69;;;16.47;78.70
13765;BME280;6953;48.810;9.204;2023-05-28T04:48:56;98885.09;;;17.04;77.01
13765;BME280;6953;48.810;9.204;2023-05-28T04:51:21;98854.19;;;17.27;76.16
13765;BME280;6953;48.810;9.204;2023-05-28T04:53:47;98897.19;;;17.54;75.11
13765;BME280;6953;48.810;9.204;2023-05-28T04:56:13;98854.00;;;17.84;74.02
13765;BME280;6953;48.810;9.204;2023-05-28T04:58:39;98800.81;;;17.75;72.06
13765;BME280;6953;48.810;9.204;2023-05-28T05:01:05;98870.66;;;18.30;71.37
13765;BME280;6953;48.810;9.204;2023-05-28T05:03:32;98648.06;;;17.29;69.85
13765;BME280;6953;48.810;9.204;2023-05-28T05:05:57;98865.22;;;18.94;68.62
13765;BME280;6953;48.810;9.204;2023-05-28T05:08:23;98858.91;;;19.27;66.92
13765;BME280;6953;48.810;9.204;2023-05-28T05:10:48;98845.75;;;19.55;65.33
13765;BME280;6953;48.810;9.204;2023-05-28T05:13:14;98867.38;;;19.91;64.13
13765;BME280;6953;48.810;9.204;2023-05-28T05:15:39;98859.78;;;20.17;63.14
13765;BME280;6953;48.810;9.204;2023-05-28T05:18:05;98877.41;;;20.48;61.98
13765;BME280;6953;48.810;9.204;2023-05-28T05:20:31;98822.97;;;20.60;60.36
13765;BME280;6953;48.810;9.204;2023-05-28T05:22:56;98860.84;;;21.20;58.85
13765;BME280;6953;48.810;9.204;2023-05-28T05:25:22;98859.53;;;21.62;57.21
13765;BME280;6953;48.810;9.204;2023-05-28T05:27:49;98810.78;;;21.60;54.73
13765;BME280;6953;48.810;9.204;2023-05-28T05:30:15;98803.03;;;21.66;53.34
13765;BME280;6953;48.810;9.204;2023-05-28T05:32:41;98666.13;;;21.28;51.85
13765;BME280;6953;48.810;9.204;2023-05-28T05:35:06;98873.75;;;22.79;50.74
13765;BME280;6953;48.810;9.204;2023-05-28T05:37:32;98881.31;;;23.18;49.06
13765;BME280;6953;48.810;9.204;2023-05-28T05:39:57;98664.56;;;22.41;47.73
13765;BME280;6953;48.810;9.204;2023-05-28T05:42:22;98706.97;;;23.04;45.47
13765;BME280;6953;48.810;9.204;2023-05-28T05:44:48;98869.94;;;24.51;44.10
13765;BME280;6953;48.810;9.204;2023-05-28T05:47:13;98822.31;;;24.69;41.69
13765;BME280;6953;48.810;9.204;2023-05-28T05:49:38;98871.75;;;25.40;40.51
13765;BME280;6953;48.810;9.204;2023-05-28T05:52:04;98873.56;;;25.71;38.56
13765;BME280;6953;48.810;9.204;2023-05-28T05:54:30;98881.63;;;25.71;37.81
13765;BME280;6953;48.810;9.204;2023-05-28T05:56:55;98828.19;;;25.68;37.08
13765;BME280;6953;48.810;9.204;2023-05-28T05:59:20;98804.44;;;25.96;36.29
13765;BME280;6953;48.810;9.204;2023-05-28T06:01:46;98879.22;;;26.85;34.30
13765;BME280;6953;48.810;9.204;2023-05-28T06:04:11;98742.34;;;26.36;32.96
13765;BME280;6953;48.810;9.204;2023-05-28T06:06:36;98875.22;;;27.48;31.98
13765;BME280;6953;48.810;9.204;2023-05-28T06:09:04;98877.44;;;27.67;31.29
13765;BME280;6953;48.810;9.204;2023-05-28T06:11:29;98872.81;;;27.90;30.34
13765;BME280;6953;48.810;9.204;2023-05-28T06:13:55;98895.19;;;28.42;29.95
13765;BME280;6953;48.810;9.204;2023-05-28T06:16:21;98898.31;;;28.59;28.98
13765;BME280;6953;48.810;9.204;2023-05-28T06:18:47;98902.91;;;28.59;29.41
13765;BME280;6953;48.810;9.204;2023-05-28T06:21:12;98836.72;;;28.05;29.65
13765;BME280;6953;48.810;9.204;2023-05-28T06:23:38;98843.34;;;28.32;28.66
13765;BME280;6953;48.810;9.204;2023-05-28T06:26:03;98734.81;;;28.07;28.01
13765;BME280;6953;48.810;9.204;2023-05-28T06:28:30;98861.25;;;29.24;27.34
13765;BME280;6953;48.810;9.204;2023-05-28T06:30:55;98885.09;;;29.35;27.20
13765;BME280;6953;48.810;9.204;2023-05-28T06:33:21;98877.91;;;29.69;26.27
13765;BME280;6953;48.810;9.204;2023-05-28T06:35:46;98902.56;;;30.36;25.51
13765;BME280;6953;48.810;9.204;2023-05-28T06:38:12;98909.50;;;30.85;25.08
13765;BME280;6953;48.810;9.204;2023-05-28T06:40:37;98916.47;;;31.07;24.65
13765;BME280;6953;48.810;9.204;2023-05-28T06:43:03;98906.81;;;30.98;24.06
13765;BME280;6953;48.810;9.204;2023-05-28T06:45:28;98937.69;;;31.03;23.62
13765;BME280;6953;48.810;9.204;2023-05-28T06:47:54;98906.53;;;31.53;22.84
13765;BME280;6953;48.810;9.204;2023-05-28T06:50:20;98909.91;;;31.61;23.33
13765;BME280;6953;48.810;9.204;2023-05-28T06:52:45;98921.97;;;31.52;23.46
13765;BME280;6953;48.810;9.204;2023-05-28T06:55:11;98873.28;;;31.12;22.78
13765;BME280;6953;48.810;9.204;2023-05-28T06:57:37;98787.97;;;31.14;22.93
13765;BME280;6953;48.810;9.204;2023-05-28T07:00:03;98873.53;;;32.20;21.96
13765;BME280;6953;48.810;9.204;2023-05-28T07:02:34;98932.16;;;33.23;21.09
13765;BME280;6953;48.810;9.204;2023-05-28T07:04:59;98936.66;;;33.73;20.94
13765;BME280;6953;48.810;9.204;2023-05-28T07:07:25;98959.31;;;33.67;20.32
13765;BME280;6953;48.810;9.204;2023-05-28T07:09:50;98872.59;;;33.71;20.91
13765;BME280;6953;48.810;9.204;2023-05-28T07:12:16;98934.03;;;34.09;20.32
13765;BME280;6953;48.810;9.204;2023-05-28T07:14:41;98929.53;;;34.45;20.34
13765;BME280;6953;48.810;9.204;2023-05-28T07:17:06;98933.25;;;34.69;19.18
13765;BME280;6953;48.810;9.204;2023-05-28T07:19:32;98930.31;;;34.52;19.32
13765;BME280;6953;48.810;9.204;2023-05-28T07:21:57;98951.31;;;34.70;20.63
13765;BME280;6953;48.810;9.204;2023-05-28T07:24:23;98942.44;;;34.92;19.62
13765;BME280;6953;48.810;9.204;2023-05-28T07:26:48;98882.50;;;34.86;19.08
13765;BME280;6953;48.810;9.204;2023-05-28T07:29:13;98942.00;;;35.42;18.85
13765;BME280;6953;48.810;9.204;2023-05-28T07:31:41;98947.34;;;35.49;18.49
13765;BME280;6953;48.810;9.204;2023-05-28T07:34:07;98882.44;;;35.22;18.28
13765;BME280;6953;48.810;9.204;2023-05-28T07:36:32;98796.06;;;34.98;17.95
13765;BME280;6953;48.810;9.204;2023-05-28T07:38:58;98965.84;;;36.17;18.52
13765;BME280;6953;48.810;9.204;2023-05-28T07:41:23;98808.00;;;35.55;17.64
13765;BME280;6953;48.810;9.204;2023-05-28T07:43:49;98950.31;;;36.52;17.60
13765;BME280;6953;48.810;9.204;2023-05-28T07:46:15;98837.81;;;35.91;17.39
13765;BME280;6953;48.810;9.204;2023-05-28T07:48:42;98906.31;;;36.53;16.92
13765;BME280;6953;48.810;9.204;2023-05-28T07:51:09;98962.75;;;36.71;17.35
13765;BME280;6953;48.810;9.204;2023-05-28T07:53:35;98957.72;;;36.91;17.00
13765;BME280;6953;48.810;9.204;2023-05-28T07:56:01;98948.47;;;37.43;16.73
13765;BME280;6953;48.810;9.204;2023-05-28T07:58:26;98952.78;;;37.27;16.78
13765;BME280;6953;48.810;9.204;2023-05-28T08:00:51;98957.75;;;37.42;16.35
13765;BME280;6953;48.810;9.204;2023-05-28T08:03:17;98960.50;;;37.86;16.10
13765;BME280;6953;48.810;9.204;2023-05-28T08:05:42;98806.16;;;37.36;15.82
13765;BME280;6953;48.810;9.204;2023-05-28T08:08:08;98966.03;;;38.35;15.82
13765;BME280;6953;48.810;9.204;2023-05-28T08:10:33;98954.63;;;37.94;15.66
13765;BME280;6953;48.810;9.204;2023-05-28T08:12:59;98947.75;;;37.91;16.70
13765;BME280;6953;48.810;9.204;2023-05-28T08:15:24;98943.25;;;38.02;16.46
13765;BME280;6953;48.810;9.204;2023-05-28T08:17:50;98932.09;;;38.41;16.20
13765;BME280;6953;48.810;9.204;2023-05-28T08:20:15;98815.13;;;38.35;15.94
13765;BME280;6953;48.810;9.204;2023-05-28T08:22:40;98800.78;;;38.50;15.90
13765;BME280;6953;48.810;9.204;2023-05-28T08:25:08;98857.44;;;39.25;15.58
13765;BME280;6953;48.810;9.204;2023-05-28T08:27:34;98931.25;;;39.64;14.84
13765;BME280;6953;48.810;9.204;2023-05-28T08:29:59;98924.91;;;39.37;14.84
13765;BME280;6953;48.810;9.204;2023-05-28T08:32:25;98960.19;;;39.72;15.23
13765;BME280;6953;48.810;9.204;2023-05-28T08:34:50;98775.03;;;38.98;15.43
13765;BME280;6953;48.810;9.204;2023-05-28T08:37:16;98935.34;;;39.93;15.25
13765;BME280;6953;48.810;9.204;2023-05-28T08:39:41;98775.34;;;39.02;15.04
13765;BME280;6953;48.810;9.204;2023-05-28T08:42:07;98927.66;;;40.63;14.83
13765;BME280;6953;48.810;9.204;2023-05-28T08:44:32;98771.63;;;40.17;14.59
13765;BME280;6953;48.810;9.204;2023-05-28T08:46:59;98751.41;;;40.48;14.33
13765;BME280;6953;48.810;9.204;2023-05-28T08:49:34;98922.78;;;41.41;14.28
13765;BME280;6953;48.810;9.204;2023-05-28T08:52:05;98862.66;;;41.23;14.65
13765;BME280;6953;48.810;9.204;2023-05-28T08:54:30;98759.66;;;40.48;14.18
13765;BME280;6953;48.810;9.204;2023-05-28T08:56:56;98904.28;;;41.21;14.85
13765;BME280;6953;48.810;9.204;2023-05-28T08:59:23;98881.69;;;41.29;13.79
13765;BME280;6953;48.810;9.204;2023-05-28T09:01:49;98850.19;;;41.00;14.45
13765;BME280;6953;48.810;9.204;2023-05-28T09:04:15;98904.41;;;41.76;13.67
13765;BME280;6953;48.810;9.204;2023-05-28T09:06:40;98891.41;;;42.21;13.90
13765;BME280;6953;48.810;9.204;2023-05-28T09:09:06;98912.94;;;42.59;13.49
13765;BME280;6953;48.810;9.204;2023-05-28T09:11:35;98754.09;;;41.29;13.38
13765;BME280;6953;48.810;9.204;2023-05-28T09:14:09;98866.59;;;41.92;12.92
13765;BME280;6953;48.810;9.204;2023-05-28T09:16:35;98888.41;;;41.88;14.19
13765;BME280;6953;48.810;9.204;2023-05-28T09:19:03;98896.66;;;42.43;13.71
13765;BME280;6953;48.810;9.204;2023-05-28T09:21:29;98833.50;;;42.11;13.22
13765;BME280;6953;48.810;9.204;2023-05-28T09:23:55;98743.59;;;41.81;13.33
13765;BME280;6953;48.810;9.204;2023-05-28T09:26:20;98911.00;;;42.55;13.12
13765;BME280;6953;48.810;9.204;2023-05-28T09:28:46;98807.50;;;42.27;13.11
13765;BME280;6953;48.810;9.204;2023-05-28T09:31:11;98874.63;;;43.54;12.89
13765;BME280;6953;48.810;9.204;2023-05-28T09:33:47;98887.13;;;44.19;12.13
13765;BME280;6953;48.810;9.204;2023-05-28T09:36:16;98878.81;;;44.47;12.19
13765;BME280;6953;48.810;9.204;2023-05-28T09:38:42;98840.09;;;43.85;12.46
13765;BME280;6953;48.810;9.204;2023-05-28T09:41:26;98771.13;;;42.84;13.02
13765;BME280;6953;48.810;9.204;2023-05-28T09:44:02;98869.75;;;43.80;12.81
13765;BME280;6953;48.810;9.204;2023-05-28T09:46:33;98881.63;;;43.42;12.23
13765;BME280;6953;48.810;9.204;2023-05-28T09:48:59;98861.34;;;43.18;12.65
13765;BME280;6953;48.810;9.204;2023-05-28T09:51:27;98823.78;;;43.50;12.92
13765;BME280;6953;48.810;9.204;2023-05-28T09:53:59;98886.94;;;43.77;12.48
13765;BME280;6953;48.810;9.204;2023-05-28T09:56:30;98872.38;;;43.61;12.71
13765;BME280;6953;48.810;9.204;2023-05-28T09:59:02;98861.50;;;44.08;12.35
13765;BME280;6953;48.810;9.204;2023-05-28T10:01:38;98815.22;;;44.60;11.92
13765;BME280;6953;48.810;9.204;2023-05-28T10:04:07;98874.75;;;44.86;11.99
13765;BME280;6953;48.810;9.204;2023-05-28T10:06:34;98870.69;;;45.02;11.92
13765;BME280;6953;48.810;9.204;2023-05-28T10:09:01;98754.78;;;44.44;11.99
13765;BME280;6953;48.810;9.204;2023-05-28T10:11:30;98832.47;;;44.99;11.62
13765;BME280;6953;48.810;9.204;2023-05-28T10:14:00;98874.47;;;45.30;11.71
13765;BME280;6953;48.810;9.204;2023-05-28T10:16:26;98798.50;;;44.70;11.89
13765;BME280;6953;48.810;9.204;2023-05-28T10:18:53;98875.50;;;45.15;11.58
13765;BME280;6953;48.810;9.204;2023-05-28T10:21:18;98719.50;;;44.49;11.32
13765;BME280;6953;48.810;9.204;2023-05-28T10:23:45;98661.22;;;44.18;11.53
13765;BME280;6953;48.810;9.204;2023-05-28T10:26:13;98754.19;;;45.07;11.38
13765;BME280;6953;48.810;9.204;2023-05-28T10:28:39;98840.03;;;46.18;10.92
13765;BME280;6953;48.810;9.204;2023-05-28T10:31:08;98875.59;;;47.01;10.37
13765;BME280;6953;48.810;9.204;2023-05-28T10:33:40;98869.84;;;46.98;10.13
13765;BME280;6953;48.810;9.204;2023-05-28T10:36:11;98720.59;;;44.90;10.79
13765;BME280;6953;48.810;9.204;2023-05-28T10:38:57;98875.75;;;45.92;11.13
13765;BME280;6953;48.810;9.204;2023-05-28T10:41:23;98726.50;;;45.21;11.08
13765;BME280;6953;48.810;9.204;2023-05-28T10:43:52;98864.44;;;46.34;11.56
13765;BME280;6953;48.810;9.204;2023-05-28T10:51:51;98884.31;;;45.59;10.99
13765;BME280;6953;48.810;9.204;2023-05-28T11:02:25;98865.72;;;45.78;10.86
13765;BME280;6953;48.810;9.204;2023-05-28T11:04:58;98829.47;;;46.01;10.22
13765;BME280;6953;48.810;9.204;2023-05-28T11:07:40;98709.50;;;45.59;10.52
13765;BME280;6953;48.810;9.204;2023-05-28T11:10:11;98859.50;;;46.31;10.17
13765;BME280;6953;48.810;9.204;2023-05-28T11:12:39;98705.03;;;45.76;10.02
13765;BME280;6953;48.810;9.204;2023-05-28T11:15:07;98701.75;;;46.01;9.83
13765;BME280;6953;48.810;9.204;2023-05-28T11:17:43;98843.22;;;47.54;10.11
13765;BME280;6953;48.810;9.204;2023-05-28T11:20:25;98801.56;;;46.92;9.99
13765;BME280;6953;48.810;9.204;2023-05-28T11:22:51;98799.59;;;46.92;10.47
13765;BME280;6953;48.810;9.204;2023-05-28T11:25:17;98851.38;;;47.51;9.61
13765;BME280;6953;48.810;9.204;2023-05-28T11:27:46;98835.28;;;47.12;9.75
13765;BME280;6953;48.810;9.204;2023-05-28T11:30:13;98833.28;;;46.64;10.06
13765;BME280;6953;48.810;9.204;2023-05-28T11:32:40;98856.38;;;45.87;9.74
13765;BME280;6953;48.810;9.204;2023-05-28T11:35:08;98827.44;;;46.07;9.88
13765;BME280;6953;48.810;9.204;2023-05-28T11:37:35;98818.56;;;46.63;9.75
13765;BME280;6953;48.810;9.204;2023-05-28T11:40:03;98830.72;;;46.09;10.25
13765;BME280;6953;48.810;9.204;2023-05-28T11:42:35;98723.34;;;46.04;9.83
13765;BME280;6953;48.810;9.204;2023-05-28T11:45:02;98728.00;;;46.63;9.76
13765;BME280;6953;48.810;9.204;2023-05-28T11:47:32;98856.94;;;47.51;9.35
13765;BME280;6953;48.810;9.204;2023-05-28T11:49:57;98836.22;;;47.21;9.88
13765;BME280;6953;48.810;9.204;2023-05-28T11:52:24;98821.25;;;47.31;9.07
13765;BME280;6953;48.810;9.204;2023-05-28T11:54:56;98804.91;;;47.73;9.20
13765;BME280;6953;48.810;9.204;2023-05-28T11:57:24;98671.34;;;47.07;9.27
13765;BME280;6953;48.810;9.204;2023-05-28T12:02:54;98829.84;;;48.61;8.78
13765;BME280;6953;48.810;9.204;2023-05-28T12:05:20;98819.88;;;48.77;8.42
13765;BME280;6953;48.810;9.204;2023-05-28T12:07:46;98717.06;;;47.59;8.78
13765;BME280;6953;48.810;9.204;2023-05-28T12:10:15;98824.34;;;48.17;8.59
13765;BME280;6953;48.810;9.204;2023-05-28T12:13:00;98835.59;;;48.03;9.11
13765;BME280;6953;48.810;9.204;2023-05-28T12:15:28;98821.16;;;48.01;8.77
13765;BME280;6953;48.810;9.204;2023-05-28T12:17:57;98813.00;;;48.05;9.08
13765;BME280;6953;48.810;9.204;2023-05-28T12:25:26;98829.19;;;46.62;9.60
13765;BME280;6953;48.810;9.204;2023-05-28T12:27:51;98799.09;;;46.90;9.61
13765;BME280;6953;48.810;9.204;2023-05-28T12:30:17;98645.44;;;46.14;9.26
13765;BME280;6953;48.810;9.204;2023-05-28T12:32:42;98803.13;;;46.58;8.78
13765;BME280;6953;48.810;9.204;2023-05-28T12:35:08;98739.88;;;45.82;9.27
13765;BME280;6953;48.810;9.204;2023-05-28T12:37:33;98801.94;;;45.73;9.22
13765;BME280;6953;48.810;9.204;2023-05-28T12:39:59;98755.97;;;45.67;9.45
13765;BME280;6953;48.810;9.204;2023-05-28T12:42:24;98779.44;;;45.74;9.90
13765;BME280;6953;48.810;9.204;2023-05-28T12:44:50;98748.56;;;45.94;9.61
13765;BME280;6953;48.810;9.204;2023-05-28T12:47:15;98779.66;;;46.77;8.80
13765;BME280;6953;48.810;9.204;2023-05-28T12:49:40;98690.47;;;46.73;9.10
13765;BME280;6953;48.810;9.204;2023-05-28T12:52:06;98662.34;;;46.53;9.44
13765;BME280;6953;48.810;9.204;2023-05-28T12:54:33;98790.16;;;47.15;9.00
13765;BME280;6953;48.810;9.204;2023-05-28T12:56:58;98792.56;;;47.08;8.87
13765;BME280;6953;48.810;9.204;2023-05-28T12:59:25;98632.44;;;46.23;8.92
13765;BME280;6953;48.810;9.204;2023-05-28T13:01:51;98782.94;;;47.28;8.68
13765;BME280;6953;48.810;9.204;2023-05-28T13:04:17;98810.25;;;47.12;8.68
13765;BME280;6953;48.810;9.204;2023-05-28T13:06:44;98792.22;;;46.61;9.08
13765;BME280;6953;48.810;9.204;2023-05-28T13:09:10;98768.53;;;46.37;9.56
13765;BME280;6953;48.810;9.204;2023-05-28T13:11:38;98776.63;;;46.06;9.58
13765;BME280;6953;48.810;9.204;2023-05-28T13:14:04;98784.09;;;45.79;9.26
13765;BME280;6953;48.810;9.204;2023-05-28T13:16:29;98753.06;;;45.08;9.46
13765;BME280;6953;48.810;9.204;2023-05-28T13:18:54;98613.16;;;44.69;9.69
13765;BME280;6953;48.810;9.204;2023-05-28T13:21:21;98756.13;;;45.89;8.92
13765;BME280;6953;48.810;9.204;2023-05-28T13:23:47;98595.91;;;44.35;9.92
13765;BME280;6953;48.810;9.204;2023-05-28T13:26:13;98695.16;;;44.70;10.24
13765;BME280;6953;48.810;9.204;2023-05-28T13:28:38;98734.56;;;45.04;9.30
13765;BME280;6953;48.810;9.204;2023-05-28T13:31:04;98764.81;;;45.19;9.90